Aérodrome :
LOGIN :

S'inscrire | Disclaimer

   EN    FR    IT 

 










Légende :    VFR   VFR Marginal   IFR   IFR Intensif   IFR Très Intensif
Visi : 
Plafond : 
>= 8 km
>= 3000ft
5 à 8 km
1000 à 3000 ft
1500m à 5 km
500 à 1000 ft
800 à 1500m
200 à 500 ft
< 800m
< 200 ft
Symboles :   Orages  Brouillard  Fortes neiges  Fortes précipitations  Vent > 20 kt
SIGMETs :   Divers  Orages  Givrage  Turbulence  Onde Orograph.  Cendres Volcan.







- Altitude de l'aérodrome : 1487 ft
- Code IATA : MUC


EDDM - München Franz Josef Strauss

DERNIER METAR :
  • 200120Z VRB01KT 4000 BR SCT023 BKN038 M04/M05 Q1014 R88/190095 NOSIG

METARs EXPIRÉS :
  • 200050Z VRB02KT 4000 BR FEW007 SCT025 BKN036 M04/M05 Q1014 R88/190095 NOSIG
  • 200020Z 08002KT 4500 BR BKN025 BKN040 M05/M05 Q1014 R88/190095 NOSIG
  • 192350Z 10003KT 5000 BR BKN025 BKN040 M05/M06 Q1015 R88/190095 TEMPO 4000
  • 192320Z VRB02KT 5000 BR FEW006 SCT020 BKN035 M06/M07 Q1015 R88/190095 TEMPO 4000
  • 192250Z VRB02KT 6000 SCT018 BKN035 M06/M07 Q1015 R88/190095 TEMPO 4000 BR

TAF TAF EDDM
Valide du 20 à 00h jusqu'au 21 à 06h UTC


192300Z 2000/2106 VRB03KT 6000 SCT012 BKN030
TEMPO 2000/2010 4000 BR BKN012
PROB30
TEMPO 2000/2010 2500 -SG BKN008
PROB30
TEMPO 2021/2106 4000 -SN BKN012
Pas de NOTAMs connus pour ce terrain.



MET'MAP, la Météo Aéronautique d'un coup d'oeil ! - Copyright ORBIFLY Décembre 2007 - Disclaimer

ORBIFLY MET'MAP TEAM :

Programmation & Développement : Alexandra Zaïnal
Conception & Développement : Baudouin d'Aumeries
Co-Programmation & Développement : Marc-Olivier Méhu
Soutien technique & logistique : Manuel Goepfert

Contact : metmap@orbifly.com




SOURCES & CREDITS :

   NOAA